sensor_id;sensor_type;location;lat;lon;timestamp;pressure;altitude;pressure_sealevel;temperature;humidity
10921;BME280;5513;50.580;8.818;2022-10-29T00:01:54;99769.31;;;15.51;100.00
10921;BME280;5513;50.580;8.818;2022-10-29T00:04:23;99759.03;;;15.58;100.00
10921;BME280;5513;50.580;8.818;2022-10-29T00:06:52;99756.56;;;15.67;100.00
10921;BME280;5513;50.580;8.818;2022-10-29T00:09:23;99753.16;;;15.65;100.00
10921;BME280;5513;50.580;8.818;2022-10-29T00:11:51;99762.63;;;15.69;100.00
10921;BME280;5513;50.580;8.818;2022-10-29T00:14:19;99764.59;;;15.79;100.00
10921;BME280;5513;50.580;8.818;2022-10-29T00:16:48;99766.41;;;15.78;100.00
10921;BME280;5513;50.580;8.818;2022-10-29T00:19:18;99762.28;;;15.74;100.00
10921;BME280;5513;50.580;8.818;2022-10-29T00:21:49;99756.09;;;15.73;100.00
10921;BME280;5513;50.580;8.818;2022-10-29T00:24:17;99756.88;;;15.63;100.00
10921;BME280;5513;50.580;8.818;2022-10-29T00:26:46;99768.94;;;15.44;100.00
10921;BME280;5513;50.580;8.818;2022-10-29T00:29:14;99764.88;;;15.39;100.00
10921;BME280;5513;50.580;8.818;2022-10-29T00:31:42;99760.44;;;15.51;100.00
10921;BME280;5513;50.580;8.818;2022-10-29T00:34:11;99765.50;;;15.42;100.00
10921;BME280;5513;50.580;8.818;2022-10-29T00:36:41;99763.13;;;15.51;100.00
10921;BME280;5513;50.580;8.818;2022-10-29T00:39:12;99758.31;;;15.56;100.00
10921;BME280;5513;50.580;8.818;2022-10-29T00:41:42;99759.72;;;15.49;100.00
10921;BME280;5513;50.580;8.818;2022-10-29T00:44:32;99767.84;;;15.47;100.00
10921;BME280;5513;50.580;8.818;2022-10-29T00:47:09;99760.69;;;15.48;100.00
10921;BME280;5513;50.580;8.818;2022-10-29T00:49:40;99768.97;;;15.56;100.00
10921;BME280;5513;50.580;8.818;2022-10-29T00:52:11;99773.47;;;15.55;100.00
10921;BME280;5513;50.580;8.818;2022-10-29T00:54:44;99776.13;;;15.31;100.00
10921;BME280;5513;50.580;8.818;2022-10-29T00:57:18;99778.66;;;15.09;100.00
10921;BME280;5513;50.580;8.818;2022-10-29T00:59:49;99768.34;;;14.92;100.00
10921;BME280;5513;50.580;8.818;2022-10-29T01:02:21;99769.16;;;15.05;100.00
10921;BME280;5513;50.580;8.818;2022-10-29T01:04:51;99765.91;;;15.25;100.00
10921;BME280;5513;50.580;8.818;2022-10-29T01:07:23;99762.78;;;15.07;100.00
10921;BME280;5513;50.580;8.818;2022-10-29T01:09:51;99776.13;;;15.07;100.00
10921;BME280;5513;50.580;8.818;2022-10-29T01:12:42;99776.47;;;14.90;100.00
10921;BME280;5513;50.580;8.818;2022-10-29T01:15:19;99777.03;;;14.82;100.00
10921;BME280;5513;50.580;8.818;2022-10-29T01:18:04;99767.66;;;14.77;100.00
10921;BME280;5513;50.580;8.818;2022-10-29T01:21:02;99770.91;;;14.93;100.00
10921;BME280;5513;50.580;8.818;2022-10-29T01:23:58;99764.19;;;15.00;100.00
10921;BME280;5513;50.580;8.818;2022-10-29T01:27:15;99762.59;;;14.98;100.00
10921;BME280;5513;50.580;8.818;2022-10-29T01:30:00;99770.19;;;14.91;100.00
10921;BME280;5513;50.580;8.818;2022-10-29T01:32:38;99774.44;;;14.94;100.00
10921;BME280;5513;50.580;8.818;2022-10-29T01:35:16;99769.41;;;15.02;100.00
10921;BME280;5513;50.580;8.818;2022-10-29T01:37:53;99770.28;;;14.89;100.00
10921;BME280;5513;50.580;8.818;2022-10-29T01:40:25;99780.31;;;14.86;100.00
10921;BME280;5513;50.580;8.818;2022-10-29T01:42:57;99772.03;;;14.78;100.00
10921;BME280;5513;50.580;8.818;2022-10-29T01:45:35;99775.75;;;14.75;100.00
10921;BME280;5513;50.580;8.818;2022-10-29T01:48:10;99770.75;;;14.71;100.00
10921;BME280;5513;50.580;8.818;2022-10-29T01:50:43;99768.28;;;14.80;100.00
10921;BME280;5513;50.580;8.818;2022-10-29T01:53:13;99773.72;;;14.79;100.00
10921;BME280;5513;50.580;8.818;2022-10-29T01:55:41;99786.34;;;14.77;100.00
10921;BME280;5513;50.580;8.818;2022-10-29T01:58:11;99790.03;;;14.74;100.00
10921;BME280;5513;50.580;8.818;2022-10-29T02:00:47;99784.81;;;14.73;100.00
10921;BME280;5513;50.580;8.818;2022-10-29T02:03:32;99783.53;;;14.66;100.00
10921;BME280;5513;50.580;8.818;2022-10-29T02:06:12;99777.03;;;14.57;100.00
10921;BME280;5513;50.580;8.818;2022-10-29T02:08:46;99777.56;;;14.37;100.00
10921;BME280;5513;50.580;8.818;2022-10-29T02:11:23;99771.72;;;14.31;100.00
10921;BME280;5513;50.580;8.818;2022-10-29T02:13:57;99780.00;;;14.27;100.00
10921;BME280;5513;50.580;8.818;2022-10-29T02:16:27;99778.53;;;14.36;100.00
10921;BME280;5513;50.580;8.818;2022-10-29T02:18:59;99777.56;;;14.37;100.00
10921;BME280;5513;50.580;8.818;2022-10-29T02:21:28;99778.41;;;14.37;100.00
10921;BME280;5513;50.580;8.818;2022-10-29T02:23:59;99784.50;;;14.39;100.00
10921;BME280;5513;50.580;8.818;2022-10-29T02:26:28;99773.72;;;14.28;100.00
10921;BME280;5513;50.580;8.818;2022-10-29T02:28:56;99764.69;;;14.30;100.00
10921;BME280;5513;50.580;8.818;2022-10-29T02:31:24;99762.03;;;14.30;100.00
10921;BME280;5513;50.580;8.818;2022-10-29T02:33:54;99759.34;;;14.30;100.00
10921;BME280;5513;50.580;8.818;2022-10-29T02:36:24;99756.81;;;14.29;100.00
10921;BME280;5513;50.580;8.818;2022-10-29T02:38:52;99745.59;;;14.11;100.00
10921;BME280;5513;50.580;8.818;2022-10-29T02:41:21;99744.88;;;14.09;100.00
10921;BME280;5513;50.580;8.818;2022-10-29T02:43:51;99745.50;;;14.00;100.00
10921;BME280;5513;50.580;8.818;2022-10-29T02:46:24;99748.56;;;13.94;100.00
10921;BME280;5513;50.580;8.818;2022-10-29T02:48:56;99746.41;;;13.86;100.00
10921;BME280;5513;50.580;8.818;2022-10-29T02:51:25;99744.09;;;13.82;100.00
10921;BME280;5513;50.580;8.818;2022-10-29T02:53:55;99745.03;;;13.81;100.00
10921;BME280;5513;50.580;8.818;2022-10-29T02:56:23;99738.22;;;13.77;100.00
10921;BME280;5513;50.580;8.818;2022-10-29T02:58:52;99733.63;;;13.79;100.00
10921;BME280;5513;50.580;8.818;2022-10-29T03:01:20;99737.00;;;13.68;100.00
10921;BME280;5513;50.580;8.818;2022-10-29T03:03:48;99728.72;;;13.72;100.00
10921;BME280;5513;50.580;8.818;2022-10-29T03:06:19;99727.44;;;13.78;100.00
10921;BME280;5513;50.580;8.818;2022-10-29T03:08:49;99728.63;;;13.87;100.00
10921;BME280;5513;50.580;8.818;2022-10-29T03:11:17;99724.81;;;13.91;100.00
10921;BME280;5513;50.580;8.818;2022-10-29T03:13:45;99729.69;;;13.84;100.00
10921;BME280;5513;50.580;8.818;2022-10-29T03:16:14;99722.97;;;13.79;100.00
10921;BME280;5513;50.580;8.818;2022-10-29T03:18:43;99740.00;;;13.63;100.00
10921;BME280;5513;50.580;8.818;2022-10-29T03:21:13;99741.59;;;13.66;100.00
10921;BME280;5513;50.580;8.818;2022-10-29T03:23:41;99738.44;;;13.73;100.00
10921;BME280;5513;50.580;8.818;2022-10-29T03:26:11;99737.25;;;13.78;100.00
10921;BME280;5513;50.580;8.818;2022-10-29T03:28:40;99742.91;;;13.86;100.00
10921;BME280;5513;50.580;8.818;2022-10-29T03:31:11;99744.59;;;13.87;100.00
10921;BME280;5513;50.580;8.818;2022-10-29T03:33:40;99738.75;;;13.82;100.00
10921;BME280;5513;50.580;8.818;2022-10-29T03:36:09;99739.91;;;13.78;100.00
10921;BME280;5513;50.580;8.818;2022-10-29T03:38:38;99739.28;;;13.74;100.00
10921;BME280;5513;50.580;8.818;2022-10-29T03:41:07;99739.34;;;13.60;100.00
10921;BME280;5513;50.580;8.818;2022-10-29T03:43:39;99744.59;;;13.61;100.00
10921;BME280;5513;50.580;8.818;2022-10-29T03:46:10;99742.78;;;13.35;100.00
10921;BME280;5513;50.580;8.818;2022-10-29T03:48:39;99749.19;;;13.32;100.00
10921;BME280;5513;50.580;8.818;2022-10-29T03:51:08;99748.66;;;13.13;100.00
10921;BME280;5513;50.580;8.818;2022-10-29T03:53:39;99740.84;;;13.10;100.00
10921;BME280;5513;50.580;8.818;2022-10-29T03:56:10;99747.59;;;13.01;100.00
10921;BME280;5513;50.580;8.818;2022-10-29T03:58:39;99746.47;;;13.05;100.00
10921;BME280;5513;50.580;8.818;2022-10-29T04:01:09;99750.53;;;13.25;100.00
10921;BME280;5513;50.580;8.818;2022-10-29T04:03:38;99751.28;;;13.27;100.00
10921;BME280;5513;50.580;8.818;2022-10-29T04:06:10;99756.69;;;13.26;100.00
10921;BME280;5513;50.580;8.818;2022-10-29T04:08:41;99760.97;;;13.28;100.00
10921;BME280;5513;50.580;8.818;2022-10-29T04:11:10;99762.56;;;13.31;100.00
10921;BME280;5513;50.580;8.818;2022-10-29T04:13:41;99760.13;;;13.40;100.00
10921;BME280;5513;50.580;8.818;2022-10-29T04:16:10;99759.22;;;13.41;100.00
10921;BME280;5513;50.580;8.818;2022-10-29T04:18:38;99759.34;;;13.26;100.00
10921;BME280;5513;50.580;8.818;2022-10-29T04:21:07;99746.72;;;13.15;100.00
10921;BME280;5513;50.580;8.818;2022-10-29T04:23:56;99757.25;;;13.16;100.00
10921;BME280;5513;50.580;8.818;2022-10-29T04:26:44;99769.53;;;13.19;100.00
10921;BME280;5513;50.580;8.818;2022-10-29T04:29:34;99772.09;;;13.21;100.00
10921;BME280;5513;50.580;8.818;2022-10-29T04:32:04;99769.91;;;13.13;100.00
10921;BME280;5513;50.580;8.818;2022-10-29T04:34:32;99772.19;;;13.19;100.00
10921;BME280;5513;50.580;8.818;2022-10-29T04:37:00;99768.41;;;13.09;100.00
10921;BME280;5513;50.580;8.818;2022-10-29T04:39:29;99769.59;;;13.17;100.00
10921;BME280;5513;50.580;8.818;2022-10-29T04:41:58;99772.19;;;13.19;100.00
10921;BME280;5513;50.580;8.818;2022-10-29T04:44:26;99772.28;;;13.17;100.00
10921;BME280;5513;50.580;8.818;2022-10-29T04:46:56;99773.91;;;13.20;100.00
10921;BME280;5513;50.580;8.818;2022-10-29T04:49:24;99770.00;;;13.11;100.00
10921;BME280;5513;50.580;8.818;2022-10-29T04:51:54;99759.47;;;13.24;100.00
10921;BME280;5513;50.580;8.818;2022-10-29T04:54:22;99754.88;;;13.12;100.00
10921;BME280;5513;50.580;8.818;2022-10-29T04:56:51;99742.94;;;13.19;100.00
10921;BME280;5513;50.580;8.818;2022-10-29T04:59:19;99742.28;;;13.42;100.00
10921;BME280;5513;50.580;8.818;2022-10-29T05:01:48;99733.94;;;13.61;100.00
10921;BME280;5513;50.580;8.818;2022-10-29T05:04:17;99737.94;;;13.41;100.00
10921;BME280;5513;50.580;8.818;2022-10-29T05:06:47;99749.75;;;12.82;100.00
10921;BME280;5513;50.580;8.818;2022-10-29T05:09:15;99743.81;;;13.05;100.00
10921;BME280;5513;50.580;8.818;2022-10-29T05:11:44;99749.50;;;13.13;100.00
10921;BME280;5513;50.580;8.818;2022-10-29T05:14:12;99746.63;;;13.16;100.00
10921;BME280;5513;50.580;8.818;2022-10-29T05:16:42;99740.78;;;13.38;100.00
10921;BME280;5513;50.580;8.818;2022-10-29T05:19:12;99743.31;;;13.40;100.00
10921;BME280;5513;50.580;8.818;2022-10-29T05:21:42;99745.25;;;13.38;100.00
10921;BME280;5513;50.580;8.818;2022-10-29T05:24:11;99731.88;;;13.52;100.00
10921;BME280;5513;50.580;8.818;2022-10-29T05:26:39;99738.25;;;13.50;100.00
10921;BME280;5513;50.580;8.818;2022-10-29T05:29:09;99745.47;;;13.48;100.00
10921;BME280;5513;50.580;8.818;2022-10-29T05:31:38;99747.63;;;13.42;100.00
10921;BME280;5513;50.580;8.818;2022-10-29T05:34:09;99743.44;;;13.38;100.00
10921;BME280;5513;50.580;8.818;2022-10-29T05:36:38;99746.00;;;13.40;100.00
10921;BME280;5513;50.580;8.818;2022-10-29T05:39:08;99747.75;;;13.54;100.00
10921;BME280;5513;50.580;8.818;2022-10-29T05:41:36;99756.16;;;13.60;100.00
10921;BME280;5513;50.580;8.818;2022-10-29T05:44:05;99755.34;;;13.72;100.00
10921;BME280;5513;50.580;8.818;2022-10-29T05:46:33;99751.75;;;13.73;100.00
10921;BME280;5513;50.580;8.818;2022-10-29T05:49:02;99746.31;;;13.75;100.00
10921;BME280;5513;50.580;8.818;2022-10-29T05:51:30;99750.03;;;13.85;100.00
10921;BME280;5513;50.580;8.818;2022-10-29T05:54:01;99753.72;;;13.70;100.00
10921;BME280;5513;50.580;8.818;2022-10-29T05:56:35;99760.44;;;13.63;100.00
10921;BME280;5513;50.580;8.818;2022-10-29T05:59:03;99751.56;;;13.50;100.00
10921;BME280;5513;50.580;8.818;2022-10-29T06:01:32;99749.84;;;13.49;100.00
10921;BME280;5513;50.580;8.818;2022-10-29T06:04:01;99743.09;;;13.30;100.00
10921;BME280;5513;50.580;8.818;2022-10-29T06:06:29;99741.34;;;13.56;100.00
10921;BME280;5513;50.580;8.818;2022-10-29T06:08:58;99734.16;;;13.71;100.00
10921;BME280;5513;50.580;8.818;2022-10-29T06:11:26;99730.00;;;13.80;100.00
10921;BME280;5513;50.580;8.818;2022-10-29T06:13:57;99735.13;;;13.83;100.00
10921;BME280;5513;50.580;8.818;2022-10-29T06:16:25;99741.75;;;13.90;100.00
10921;BME280;5513;50.580;8.818;2022-10-29T06:18:54;99738.34;;;14.00;100.00
10921;BME280;5513;50.580;8.818;2022-10-29T06:21:23;99729.50;;;14.00;100.00
10921;BME280;5513;50.580;8.818;2022-10-29T06:23:52;99735.59;;;14.02;100.00
10921;BME280;5513;50.580;8.818;2022-10-29T06:26:21;99738.97;;;14.04;100.00
10921;BME280;5513;50.580;8.818;2022-10-29T06:28:50;99742.09;;;14.11;100.00
10921;BME280;5513;50.580;8.818;2022-10-29T06:31:19;99744.19;;;14.06;100.00
10921;BME280;5513;50.580;8.818;2022-10-29T06:33:47;99745.50;;;14.00;100.00
10921;BME280;5513;50.580;8.818;2022-10-29T06:36:16;99736.94;;;13.95;100.00
10921;BME280;5513;50.580;8.818;2022-10-29T06:38:49;99738.97;;;13.91;100.00
10921;BME280;5513;50.580;8.818;2022-10-29T06:41:18;99739.50;;;13.96;100.00
10921;BME280;5513;50.580;8.818;2022-10-29T06:43:51;99741.97;;;14.12;100.00
10921;BME280;5513;50.580;8.818;2022-10-29T06:46:22;99740.28;;;14.11;100.00
10921;BME280;5513;50.580;8.818;2022-10-29T06:48:52;99747.81;;;14.17;100.00
10921;BME280;5513;50.580;8.818;2022-10-29T06:51:20;99749.22;;;14.10;100.00
10921;BME280;5513;50.580;8.818;2022-10-29T06:53:55;99749.13;;;14.24;100.00
10921;BME280;5513;50.580;8.818;2022-10-29T06:56:23;99747.53;;;14.22;100.00
10921;BME280;5513;50.580;8.818;2022-10-29T06:58:52;99740.81;;;14.29;100.00
10921;BME280;5513;50.580;8.818;2022-10-29T07:01:22;99748.03;;;14.27;100.00
10921;BME280;5513;50.580;8.818;2022-10-29T07:03:57;99736.97;;;14.33;100.00
10921;BME280;5513;50.580;8.818;2022-10-29T07:06:27;99741.31;;;14.34;100.00
10921;BME280;5513;50.580;8.818;2022-10-29T07:08:59;99736.84;;;14.35;100.00
10921;BME280;5513;50.580;8.818;2022-10-29T07:11:27;99743.47;;;14.42;100.00
10921;BME280;5513;50.580;8.818;2022-10-29T07:13:56;99746.00;;;14.43;100.00
10921;BME280;5513;50.580;8.818;2022-10-29T07:16:26;99728.84;;;14.35;100.00
10921;BME280;5513;50.580;8.818;2022-10-29T07:18:55;99747.09;;;14.53;100.00
10921;BME280;5513;50.580;8.818;2022-10-29T07:21:25;99735.69;;;14.51;100.00
10921;BME280;5513;50.580;8.818;2022-10-29T07:23:53;99738.59;;;14.48;100.00
10921;BME280;5513;50.580;8.818;2022-10-29T07:26:25;99733.16;;;14.50;100.00
10921;BME280;5513;50.580;8.818;2022-10-29T07:28:54;99750.63;;;14.54;100.00
10921;BME280;5513;50.580;8.818;2022-10-29T07:31:25;99739.44;;;14.49;100.00
10921;BME280;5513;50.580;8.818;2022-10-29T07:33:54;99736.13;;;14.58;100.00
10921;BME280;5513;50.580;8.818;2022-10-29T07:36:23;99738.44;;;14.37;100.00
10921;BME280;5513;50.580;8.818;2022-10-29T07:38:51;99752.53;;;14.52;100.00
10921;BME280;5513;50.580;8.818;2022-10-29T07:41:20;99752.84;;;14.60;100.00
10921;BME280;5513;50.580;8.818;2022-10-29T07:43:48;99763.41;;;14.62;100.00
10921;BME280;5513;50.580;8.818;2022-10-29T07:46:18;99753.78;;;14.72;100.00
10921;BME280;5513;50.580;8.818;2022-10-29T07:48:50;99761.06;;;14.70;100.00
10921;BME280;5513;50.580;8.818;2022-10-29T07:51:18;99757.22;;;14.61;100.00
10921;BME280;5513;50.580;8.818;2022-10-29T07:53:46;99760.00;;;14.59;100.00
10921;BME280;5513;50.580;8.818;2022-10-29T07:56:15;99758.50;;;14.68;100.00
10921;BME280;5513;50.580;8.818;2022-10-29T07:58:43;99750.34;;;14.82;100.00
10921;BME280;5513;50.580;8.818;2022-10-29T08:01:12;99754.22;;;14.78;100.00
10921;BME280;5513;50.580;8.818;2022-10-29T08:03:41;99755.91;;;14.79;100.00
10921;BME280;5513;50.580;8.818;2022-10-29T08:06:11;99754.78;;;15.07;100.00
10921;BME280;5513;50.580;8.818;2022-10-29T08:08:42;99745.69;;;15.10;100.00
10921;BME280;5513;50.580;8.818;2022-10-29T08:11:11;99747.13;;;15.27;100.00
10921;BME280;5513;50.580;8.818;2022-10-29T08:13:39;99748.09;;;15.26;100.00
10921;BME280;5513;50.580;8.818;2022-10-29T08:16:08;99734.06;;;15.35;100.00
10921;BME280;5513;50.580;8.818;2022-10-29T08:18:36;99738.13;;;15.28;100.00
10921;BME280;5513;50.580;8.818;2022-10-29T08:21:05;99724.56;;;15.31;100.00
10921;BME280;5513;50.580;8.818;2022-10-29T08:23:35;99733.59;;;15.17;100.00
10921;BME280;5513;50.580;8.818;2022-10-29T08:26:04;99735.31;;;15.18;100.00
10921;BME280;5513;50.580;8.818;2022-10-29T08:28:32;99737.91;;;15.31;100.00
10921;BME280;5513;50.580;8.818;2022-10-29T08:31:01;99737.59;;;15.35;100.00
10921;BME280;5513;50.580;8.818;2022-10-29T08:33:30;99735.94;;;15.45;100.00
10921;BME280;5513;50.580;8.818;2022-10-29T08:35:58;99732.28;;;15.46;100.00
10921;BME280;5513;50.580;8.818;2022-10-29T08:38:27;99731.06;;;15.51;100.00
10921;BME280;5513;50.580;8.818;2022-10-29T08:41:12;99733.00;;;15.49;100.00
10921;BME280;5513;50.580;8.818;2022-10-29T08:44:01;99734.16;;;15.57;100.00
10921;BME280;5513;50.580;8.818;2022-10-29T08:46:41;99735.44;;;15.64;100.00
10921;BME280;5513;50.580;8.818;2022-10-29T08:49:17;99734.88;;;15.59;100.00
10921;BME280;5513;50.580;8.818;2022-10-29T08:51:51;99737.47;;;15.61;100.00
10921;BME280;5513;50.580;8.818;2022-10-29T08:54:21;99747.09;;;15.63;100.00
10921;BME280;5513;50.580;8.818;2022-10-29T08:57:04;99743.53;;;15.63;100.00
10921;BME280;5513;50.580;8.818;2022-10-29T08:59:39;99748.44;;;15.80;100.00
10921;BME280;5513;50.580;8.818;2022-10-29T09:02:16;99738.34;;;15.72;100.00
10921;BME280;5513;50.580;8.818;2022-10-29T09:04:47;99745.66;;;15.82;100.00
10921;BME280;5513;50.580;8.818;2022-10-29T09:07:37;99747.78;;;16.00;100.00
10921;BME280;5513;50.580;8.818;2022-10-29T09:10:10;99742.06;;;15.94;100.00
10921;BME280;5513;50.580;8.818;2022-10-29T09:12:55;99739.44;;;16.16;100.00
10921;BME280;5513;50.580;8.818;2022-10-29T09:15:37;99731.88;;;16.10;100.00
10921;BME280;5513;50.580;8.818;2022-10-29T09:18:30;99721.09;;;16.23;100.00
10921;BME280;5513;50.580;8.818;2022-10-29T09:21:09;99721.56;;;16.28;100.00
10921;BME280;5513;50.580;8.818;2022-10-29T09:23:55;99719.53;;;16.31;100.00
10921;BME280;5513;50.580;8.818;2022-10-29T09:26:30;99711.38;;;16.33;100.00
10921;BME280;5513;50.580;8.818;2022-10-29T09:29:21;99712.47;;;16.42;100.00
10921;BME280;5513;50.580;8.818;2022-10-29T09:31:59;99709.19;;;16.49;100.00
10921;BME280;5513;50.580;8.818;2022-10-29T09:34:36;99702.13;;;16.48;100.00
10921;BME280;5513;50.580;8.818;2022-10-29T09:37:14;99698.84;;;16.56;100.00
10921;BME280;5513;50.580;8.818;2022-10-29T09:39:45;99687.94;;;16.70;100.00
10921;BME280;5513;50.580;8.818;2022-10-29T09:42:21;99680.38;;;16.64;100.00
10921;BME280;5513;50.580;8.818;2022-10-29T09:44:54;99680.34;;;16.86;100.00
10921;BME280;5513;50.580;8.818;2022-10-29T09:47:33;99684.81;;;17.08;100.00
10921;BME280;5513;50.580;8.818;2022-10-29T09:50:13;99681.81;;;17.23;100.00
10921;BME280;5513;50.580;8.818;2022-10-29T09:52:43;99683.59;;;17.33;100.00
10921;BME280;5513;50.580;8.818;2022-10-29T09:55:17;99685.91;;;17.38;100.00
10921;BME280;5513;50.580;8.818;2022-10-29T09:57:47;99682.00;;;17.42;100.00
10921;BME280;5513;50.580;8.818;2022-10-29T10:00:21;99670.78;;;17.37;100.00
10921;BME280;5513;50.580;8.818;2022-10-29T10:02:53;99676.81;;;17.29;100.00
10921;BME280;5513;50.580;8.818;2022-10-29T10:05:26;99665.91;;;17.21;100.00
10921;BME280;5513;50.580;8.818;2022-10-29T10:08:09;99673.88;;;17.32;100.00
10921;BME280;5513;50.580;8.818;2022-10-29T10:10:49;99662.75;;;17.37;100.00
10921;BME280;5513;50.580;8.818;2022-10-29T10:13:32;99666.56;;;17.34;100.00
10921;BME280;5513;50.580;8.818;2022-10-29T10:16:04;99656.75;;;17.44;100.00
10921;BME280;5513;50.580;8.818;2022-10-29T10:18:39;99657.47;;;17.46;100.00
10921;BME280;5513;50.580;8.818;2022-10-29T10:21:09;99663.59;;;17.49;100.00
10921;BME280;5513;50.580;8.818;2022-10-29T10:23:41;99655.28;;;17.52;100.00
10921;BME280;5513;50.580;8.818;2022-10-29T10:26:31;99657.09;;;17.51;100.00
10921;BME280;5513;50.580;8.818;2022-10-29T10:29:07;99652.72;;;17.50;100.00
10921;BME280;5513;50.580;8.818;2022-10-29T10:31:38;99649.00;;;17.62;100.00
10921;BME280;5513;50.580;8.818;2022-10-29T10:34:08;99650.41;;;17.57;100.00
10921;BME280;5513;50.580;8.818;2022-10-29T10:36:42;99659.38;;;17.56;100.00
10921;BME280;5513;50.580;8.818;2022-10-29T10:39:21;99658.66;;;17.54;100.00
10921;BME280;5513;50.580;8.818;2022-10-29T10:41:51;99660.28;;;17.66;100.00
10921;BME280;5513;50.580;8.818;2022-10-29T10:44:22;99652.63;;;17.72;100.00
10921;BME280;5513;50.580;8.818;2022-10-29T10:46:54;99652.75;;;17.92;100.00
10921;BME280;5513;50.580;8.818;2022-10-29T10:49:29;99652.53;;;17.84;100.00
10921;BME280;5513;50.580;8.818;2022-10-29T10:52:01;99643.28;;;17.67;100.00
10921;BME280;5513;50.580;8.818;2022-10-29T10:54:36;99643.50;;;17.64;100.00
10921;BME280;5513;50.580;8.818;2022-10-29T10:57:20;99648.25;;;17.71;100.00
10921;BME280;5513;50.580;8.818;2022-10-29T10:59:57;99648.25;;;17.71;100.00
10921;BME280;5513;50.580;8.818;2022-10-29T11:02:34;99653.09;;;17.45;100.00
10921;BME280;5513;50.580;8.818;2022-10-29T11:05:13;99647.38;;;17.50;100.00
10921;BME280;5513;50.580;8.818;2022-10-29T11:07:46;99640.19;;;17.51;100.00
10921;BME280;5513;50.580;8.818;2022-10-29T11:10:18;99619.09;;;17.57;100.00
10921;BME280;5513;50.580;8.818;2022-10-29T11:12:51;99636.59;;;17.61;100.00
10921;BME280;5513;50.580;8.818;2022-10-29T11:15:35;99627.28;;;17.65;100.00
10921;BME280;5513;50.580;8.818;2022-10-29T11:18:13;99617.09;;;17.70;100.00
10921;BME280;5513;50.580;8.818;2022-10-29T11:20:55;99617.94;;;17.71;100.00
10921;BME280;5513;50.580;8.818;2022-10-29T11:23:32;99621.91;;;17.77;100.00
10921;BME280;5513;50.580;8.818;2022-10-29T11:26:09;99626.69;;;17.73;100.00
10921;BME280;5513;50.580;8.818;2022-10-29T11:28:40;99627.38;;;17.75;100.00
10921;BME280;5513;50.580;8.818;2022-10-29T11:31:19;99617.97;;;17.81;100.00
10921;BME280;5513;50.580;8.818;2022-10-29T11:33:57;99613.56;;;18.00;100.00
10921;BME280;5513;50.580;8.818;2022-10-29T11:36:33;99611.28;;;18.26;100.00
10921;BME280;5513;50.580;8.818;2022-10-29T11:39:12;99611.06;;;18.49;100.00
10921;BME280;5513;50.580;8.818;2022-10-29T11:41:47;99606.00;;;18.55;100.00
10921;BME280;5513;50.580;8.818;2022-10-29T11:44:17;99598.97;;;18.64;100.00
10921;BME280;5513;50.580;8.818;2022-10-29T11:47:04;99585.44;;;18.75;100.00
10921;BME280;5513;50.580;8.818;2022-10-29T11:49:52;99585.84;;;18.90;100.00
10921;BME280;5513;50.580;8.818;2022-10-29T11:52:31;99572.03;;;18.95;100.00
10921;BME280;5513;50.580;8.818;2022-10-29T11:55:13;99580.50;;;18.90;100.00
10921;BME280;5513;50.580;8.818;2022-10-29T11:57:50;99576.25;;;18.87;100.00
10921;BME280;5513;50.580;8.818;2022-10-29T12:00:22;99573.28;;;18.91;100.00
10921;BME280;5513;50.580;8.818;2022-10-29T12:03:09;99579.94;;;19.06;100.00
10921;BME280;5513;50.580;8.818;2022-10-29T12:05:50;99578.38;;;19.03;100.00
10921;BME280;5513;50.580;8.818;2022-10-29T12:08:34;99574.00;;;19.12;100.00
10921;BME280;5513;50.580;8.818;2022-10-29T12:11:12;99569.88;;;19.17;100.00
10921;BME280;5513;50.580;8.818;2022-10-29T12:13:55;99558.47;;;19.06;100.00
10921;BME280;5513;50.580;8.818;2022-10-29T12:16:32;99546.69;;;19.26;100.00
10921;BME280;5513;50.580;8.818;2022-10-29T12:19:11;99554.31;;;19.40;100.00
10921;BME280;5513;50.580;8.818;2022-10-29T12:21:54;99554.19;;;19.32;100.00
10921;BME280;5513;50.580;8.818;2022-10-29T12:24:37;99557.69;;;19.42;100.00
10921;BME280;5513;50.580;8.818;2022-10-29T12:27:14;99547.66;;;19.44;100.00
10921;BME280;5513;50.580;8.818;2022-10-29T12:29:52;99540.59;;;19.43;100.00
10921;BME280;5513;50.580;8.818;2022-10-29T12:32:28;99542.19;;;19.17;100.00
10921;BME280;5513;50.580;8.818;2022-10-29T12:35:04;99537.91;;;19.34;100.00
10921;BME280;5513;50.580;8.818;2022-10-29T12:37:39;99535.13;;;18.97;100.00
10921;BME280;5513;50.580;8.818;2022-10-29T12:40:15;99543.03;;;19.08;100.00
10921;BME280;5513;50.580;8.818;2022-10-29T12:42:46;99540.81;;;19.03;100.00
10921;BME280;5513;50.580;8.818;2022-10-29T12:45:26;99542.66;;;18.83;100.00
10921;BME280;5513;50.580;8.818;2022-10-29T12:48:04;99547.03;;;18.94;100.00
10921;BME280;5513;50.580;8.818;2022-10-29T12:50:44;99540.50;;;18.87;100.00
10921;BME280;5513;50.580;8.818;2022-10-29T12:53:25;99535.44;;;18.94;100.00
10921;BME280;5513;50.580;8.818;2022-10-29T12:55:57;99530.91;;;19.04;100.00
10921;BME280;5513;50.580;8.818;2022-10-29T12:58:49;99536.84;;;18.98;100.00
10921;BME280;5513;50.580;8.818;2022-10-29T13:10:56;99527.78;;;18.89;100.00
10921;BME280;5513;50.580;8.818;2022-10-29T13:13:49;99529.34;;;19.01;100.00
10921;BME280;5513;50.580;8.818;2022-10-29T13:16:26;99527.94;;;19.07;100.00
10921;BME280;5513;50.580;8.818;2022-10-29T13:19:14;99525.94;;;19.09;100.00
10921;BME280;5513;50.580;8.818;2022-10-29T13:21:58;99521.84;;;19.14;100.00
10921;BME280;5513;50.580;8.818;2022-10-29T13:24:28;99525.06;;;19.28;100.00
10921;BME280;5513;50.580;8.818;2022-10-29T13:27:04;99517.44;;;19.33;100.00
10921;BME280;5513;50.580;8.818;2022-10-29T13:30:19;99520.69;;;19.27;100.00
10921;BME280;5513;50.580;8.818;2022-10-29T13:32:50;99526.72;;;19.38;100.00
10921;BME280;5513;50.580;8.818;2022-10-29T13:35:39;99519.94;;;19.44;100.00
10921;BME280;5513;50.580;8.818;2022-10-29T13:38:12;99520.63;;;19.56;100.00
10921;BME280;5513;50.580;8.818;2022-10-29T13:41:00;99513.84;;;19.52;100.00
10921;BME280;5513;50.580;8.818;2022-10-29T13:43:36;99519.25;;;19.42;100.00